Latest Weather Observations for Newman Airport

IDW60801

Issued at 9:35 pm WST Wednesday 16 April 2014 (issued every 30 minutes, with the page automatically refreshed every 10 minutes)

About weather observations | Map of weather stations | Latest weather observations for WA | Other Formats
Station Details ID: 007176 Name: NEWMAN AERO Lat: -23.42 Lon: 119.80 Height: 524.0 m
Data from the previous 72 hours. | See also: Recent months at Newman Airport
Date/Time
WST
Temp
°C
App
Temp
°C
Dew
Point
Rel
Hum
%
Delta-T
°C
Wind Press
QNH
hPa
Press
MSL
hPa
Rain
since 9 am
mm
Dir
 
Spd
km/h
Gust
km/h
Spd
kts
Gust
kts
16/09:30pm 21.8 18.7 1.5 26 9.6 SE 7 11 4 6 1019.1 - 0.0
16/09:00pm 22.3 18.8 1.3 25 9.9 SE 9 11 5 6 1018.8 1015.7 0.0
16/08:30pm 22.7 19.2 1.1 24 10.2 SE 9 13 5 7 1018.6 - 0.0
16/08:00pm 23.3 20.1 1.0 23 10.6 SE 7 11 4 6 1018.3 - 0.0
16/07:30pm 24.3 21.1 0.6 21 11.3 SE 7 11 4 6 1018.0 - 0.0
16/07:00pm 25.6 22.0 0.3 19 12.1 ESE 9 15 5 8 1017.7 - 0.0
16/06:30pm 26.8 22.8 0.5 18 12.7 ESE 11 13 6 7 1017.3 - 0.0
16/06:00pm 28.5 24.7 -0.6 15 13.9 ESE 9 15 5 8 1017.0 1013.9 0.0
16/05:30pm 29.6 24.3 -0.7 14 14.6 E 17 24 9 13 1016.7 - 0.0
16/05:00pm 30.6 25.6 -0.9 13 15.2 ESE 15 24 8 13 1016.5 - 0.0
16/04:30pm 31.1 26.6 -0.5 13 15.5 ESE 13 20 7 11 1016.2 - 0.0
16/04:00pm 30.8 25.1 -0.8 13 15.3 E 19 24 10 13 1016.2 - 0.0
16/03:30pm 31.0 25.2 -1.7 12 15.7 ESE 19 35 10 19 1016.4 - 0.0
16/03:00pm 30.8 25.1 -0.8 13 15.3 E 19 28 10 15 1016.5 1013.4 0.0
16/02:30pm 30.8 25.1 -0.8 13 15.3 ENE 19 30 10 16 1016.7 - 0.0
16/02:00pm 31.1 26.2 -0.5 13 15.5 E 15 24 8 13 1017.0 - 0.0
16/01:30pm 30.6 25.0 0.1 14 15.0 ESE 19 28 10 15 1017.2 - 0.0
16/01:00pm 29.9 24.4 0.5 15 14.5 E 19 26 10 14 1017.7 - 0.0
16/12:30pm 29.2 23.5 0.8 16 14.0 E 20 33 11 18 1018.1 - 0.0
16/12:00pm 28.9 22.8 0.6 16 13.9 E 22 32 12 17 1018.6 1015.5 0.0
16/11:30am 28.5 22.9 1.1 17 13.5 E 20 32 11 17 1019.3 - 0.0
16/11:00am 28.2 22.3 1.7 18 13.2 E 22 35 12 19 1019.9 - 0.0
16/10:30am 27.9 22.1 2.2 19 12.9 E 22 32 12 17 1020.4 - 0.0
16/10:00am 27.3 21.9 2.4 20 12.5 E 20 30 11 16 1020.7 - 0.0
16/09:30am 26.6 21.5 3.2 22 11.8 E 19 28 10 15 1020.8 - 0.0
16/09:00am 25.4 20.9 4.0 25 10.9 E 17 20 9 11 1020.9 1017.9 0.0
16/08:30am 23.9 20.1 3.8 27 10.1 E 13 19 7 10 1021.0 - 0.0
16/08:00am 21.4 18.9 4.5 33 8.4 ESE 7 13 4 7 1020.8 - 0.0
16/07:30am 17.9 15.5 4.1 40 6.7 S 6 7 3 4 1020.7 - 0.0
16/07:00am 15.4 14.1 4.2 47 5.3 CALM 0 0 0 0 1020.5 - 0.0
16/06:30am 13.2 10.5 3.8 53 4.4 SW 7 9 4 5 1020.0 - 0.0
16/06:00am 13.2 10.1 3.6 52 4.4 SW 9 13 5 7 1019.9 1016.8 0.0
16/05:30am 13.6 10.9 3.7 51 4.6 WSW 7 11 4 6 1019.9 - 0.0
16/05:00am 13.9 11.1 3.4 49 4.9 NW 7 7 4 4 1019.9 - 0.0
16/04:30am 14.3 12.8 3.2 47 5.1 CALM 0 0 0 0 1019.7 - 0.0
16/04:00am 14.5 11.9 3.0 46 5.3 S 6 7 3 4 1019.7 - 0.0
16/03:30am 15.1 12.9 3.3 45 5.5 S 4 7 2 4 1019.4 - 0.0
16/03:00am 15.1 13.2 3.0 44 5.6 S 2 7 1 4 1019.6 1016.5 0.0
16/02:30am 15.8 14.0 3.3 43 5.9 SSE 2 6 1 3 1019.7 - 0.0
16/02:00am 15.8 14.4 3.3 43 5.9 CALM 0 6 0 3 1019.9 - 0.0
16/01:30am 16.4 14.9 3.1 41 6.3 CALM 0 0 0 0 1020.1 - 0.0
16/01:00am 17.2 14.7 3.5 40 6.5 SSW 6 9 3 5 1020.3 - 0.0
16/12:30am 17.8 15.1 2.9 37 7.1 S 6 11 3 6 1020.3 - 0.0
16/12:00am 17.8 16.3 2.9 37 7.0 ESE 0 0 0 0 1020.3 1017.2 0.0
 
Date/Time
WST
Temp
°C
App
Temp
°C
Dew
Point
Rel
Hum
%
Delta-T
°C
Wind Press
QNH
hPa
Press
MSL
hPa
Rain
since 9 am
mm
Dir
 
Spd
km/h
Gust
km/h
Spd
kts
Gust
kts
15/11:30pm 18.9 17.4 3.1 35 7.6 CALM 0 6 0 3 1020.3 - 0.0
15/11:00pm 19.9 17.3 3.2 33 8.1 SE 6 7 3 4 1020.3 - 0.0
15/10:30pm 21.1 18.3 3.3 31 8.7 ESE 7 11 4 6 1020.4 - 0.0
15/10:00pm 22.3 19.5 2.9 28 9.5 ESE 7 13 4 7 1020.5 - 0.0
15/09:30pm 22.0 18.8 3.2 29 9.2 ESE 9 11 5 6 1020.4 - 0.0
15/09:00pm 22.6 19.4 3.2 28 9.5 SE 9 11 5 6 1020.3 1017.2 0.0
15/08:30pm 23.3 19.8 3.3 27 9.9 SE 11 15 6 8 1020.2 - 0.0
15/08:00pm 24.0 20.5 3.3 26 10.3 ESE 11 13 6 7 1019.9 - 0.0
15/07:30pm 24.3 21.1 3.0 25 10.6 SSE 9 13 5 7 1019.4 - 0.0
15/07:00pm 25.1 21.8 2.5 23 11.2 ESE 9 11 5 6 1019.0 - 0.0
15/06:30pm 26.4 22.7 2.3 21 12.0 ESE 11 15 6 8 1018.7 - 0.0
15/06:00pm 27.7 23.4 1.2 18 13.0 ESE 13 17 7 9 1018.5 1015.4 0.0
15/05:30pm 29.1 24.5 1.6 17 13.8 ESE 15 24 8 13 1018.1 - 0.0
15/05:00pm 29.9 25.0 2.2 17 14.1 SE 17 24 9 13 1017.8 - 0.0
15/04:30pm 30.1 24.4 0.6 15 14.6 ESE 20 28 11 15 1017.6 - 0.0
15/04:00pm 30.4 26.0 2.6 17 14.3 SE 15 26 8 14 1017.5 - 0.0
15/03:30pm 30.6 25.1 1.9 16 14.6 SE 20 30 11 16 1017.6 - 0.0
15/03:00pm 30.1 24.7 2.4 17 14.1 SE 20 30 11 16 1017.7 1014.6 0.0
15/02:30pm 30.3 24.8 1.7 16 14.4 SE 20 32 11 17 1017.8 - 0.0
15/02:00pm 29.5 24.5 3.5 19 13.5 SE 19 30 10 16 1017.9 - 0.0
15/01:30pm 30.0 25.2 4.6 20 13.4 SE 19 28 10 15 1018.2 - 0.0
15/01:00pm 29.3 24.6 3.3 19 13.4 ESE 17 28 9 15 1018.5 - 0.0
15/12:30pm 29.3 25.8 5.4 22 12.8 E 13 24 7 13 1019.0 - 0.0
15/12:00pm 27.9 24.5 6.1 25 11.7 E 13 22 7 12 1019.8 1016.7 0.0
15/11:30am 28.1 23.9 5.6 24 12.0 E 17 30 9 16 1020.3 - 0.0
15/11:00am 27.3 24.1 6.7 27 11.1 ESE 13 24 7 13 1020.7 - 0.0
15/10:30am 26.4 22.1 6.9 29 10.5 E 19 30 10 16 1021.3 - 0.0
15/10:00am 25.5 20.6 6.7 30 10.1 E 22 30 12 16 1021.6 - 0.0
15/09:30am 24.8 20.3 7.0 32 9.5 E 20 28 11 15 1021.6 - 0.0
15/09:00am 24.1 19.9 7.3 34 9.0 ENE 19 28 10 15 1021.6 1018.5 0.0
15/08:30am 22.7 19.2 7.3 37 8.2 E 15 22 8 12 1021.8 - 0.0
15/08:00am 21.7 18.3 7.5 40 7.5 E 15 24 8 13 1021.7 - 0.0
15/07:30am 20.3 17.7 7.7 44 6.7 E 11 20 6 11 1021.4 - 0.0
15/07:00am 19.1 16.8 7.5 47 6.1 E 9 15 5 8 1021.0 - 0.0
15/06:30am 15.4 13.6 7.2 58 4.2 NNE 6 9 3 5 1020.8 - 0.0
15/06:00am 15.0 13.8 6.3 56 4.3 SSW 2 6 1 3 1020.6 1017.5 0.0
15/05:30am 17.2 14.8 7.0 51 5.2 SE 9 13 5 7 1020.5 - 0.0
15/05:00am 16.4 14.3 6.8 53 4.9 SE 7 9 4 5 1020.3 - 0.0
15/04:30am 15.6 13.4 6.3 54 4.6 SSW 7 9 4 5 1020.2 - 0.0
15/04:00am 15.5 13.3 6.2 54 4.6 SSW 7 9 4 5 1020.3 - 0.0
15/03:30am 15.7 14.8 5.9 52 4.9 CALM 0 6 0 3 1020.1 - 0.0
15/03:00am 16.2 15.2 5.5 49 5.3 CALM 0 6 0 3 1020.2 1017.1 0.0
15/02:30am 16.7 15.7 5.6 48 5.5 CALM 0 0 0 0 1020.0 - 0.0
15/02:00am 18.2 17.3 6.1 45 6.1 CALM 0 0 0 0 1020.0 - 0.0
15/01:30am 18.6 17.3 6.1 44 6.3 SSE 2 7 1 4 1020.1 - 0.0
15/01:00am 19.0 16.8 6.1 43 6.6 SSE 7 9 4 5 1020.2 - 0.0
15/12:30am 19.8 17.1 5.8 40 7.1 SSE 9 13 5 7 1020.1 - 0.0
15/12:00am 19.0 16.8 5.5 41 6.8 SSE 6 9 3 5 1020.1 1017.0 0.0
 
Date/Time
WST
Temp
°C
App
Temp
°C
Dew
Point
Rel
Hum
%
Delta-T
°C
Wind Press
QNH
hPa
Press
MSL
hPa
Rain
since 9 am
mm
Dir
 
Spd
km/h
Gust
km/h
Spd
kts
Gust
kts
14/11:30pm 19.8 17.1 5.5 39 7.2 SSE 9 11 5 6 1019.9 - 0.0
14/11:00pm 20.0 17.6 5.3 38 7.4 SSE 7 9 4 5 1020.1 - 0.0
14/10:30pm 20.6 18.4 5.4 37 7.7 SSE 6 7 3 4 1020.3 - 0.0
14/10:00pm 21.6 19.3 5.5 35 8.2 SE 7 11 4 6 1020.1 - 0.0
14/09:30pm 22.4 19.7 5.4 33 8.7 ESE 9 13 5 7 1020.2 - 0.0
14/09:00pm 22.4 19.9 4.9 32 8.9 SE 7 11 4 6 1020.0 1016.9 0.0
14/08:30pm 23.1 20.6 4.6 30 9.4 SE 7 11 4 6 1019.7 - 0.0
14/08:00pm 24.0 21.4 4.4 28 10.0 SE 7 9 4 5 1019.3 - 0.0
14/07:30pm 24.9 22.0 4.6 27 10.4 SE 9 13 5 7 1019.0 - 0.0
14/07:00pm 26.0 22.7 4.5 25 11.1 SE 11 13 6 7 1018.6 - 0.0
14/06:30pm 26.9 23.1 4.0 23 11.8 ESE 13 19 7 10 1018.2 - 0.0
14/06:00pm 27.8 23.9 3.5 21 12.4 ESE 13 19 7 10 1017.9 1014.8 0.0
14/05:30pm 29.1 24.4 3.1 19 13.3 ESE 17 28 9 15 1017.5 - 0.0
14/05:00pm 29.7 24.7 3.6 19 13.6 SSE 19 30 10 16 1017.0 - 0.0
14/04:30pm 30.1 25.0 3.2 18 13.9 ESE 19 26 10 14 1016.8 - 0.0
14/04:00pm 30.5 25.5 3.5 18 14.1 SE 19 26 10 14 1016.7 - 0.0
14/03:30pm 30.3 24.7 3.4 18 14.0 ESE 22 35 12 19 1016.7 - 0.0
14/03:00pm 30.1 25.2 4.0 19 13.7 E 19 30 10 16 1016.9 1013.8 0.0
14/02:30pm 30.4 24.9 4.2 19 13.8 SSE 22 32 12 17 1016.9 - 0.0
14/02:00pm 30.0 25.1 5.3 21 13.2 SE 20 33 11 18 1017.0 - 0.0
14/01:30pm 29.4 24.6 4.8 21 13.0 ENE 19 28 10 15 1017.2 - 0.0
14/01:00pm 29.6 25.5 4.3 20 13.3 ESE 15 28 8 15 1017.8 - 0.0
14/12:30pm 28.7 24.3 4.9 22 12.6 ESE 17 28 9 15 1018.2 - 0.0
14/12:00pm 28.2 25.0 6.9 26 11.6 E 13 24 7 13 1018.5 1015.4 0.0
14/11:30am 27.2 22.7 6.0 26 11.3 E 19 33 10 18 1019.1 - 0.0
14/11:00am 27.5 23.3 7.4 28 11.0 ESE 19 28 10 15 1019.6 - 0.0
14/10:30am 27.2 22.8 7.6 29 10.7 ESE 20 30 11 16 1020.0 - 0.0
14/10:00am 26.0 21.3 7.6 31 10.0 ESE 22 33 12 18 1020.2 - 0.0
14/09:30am 25.5 21.3 7.6 32 9.7 ESE 19 35 10 19 1020.4 - 0.0
14/09:00am 24.4 20.2 7.5 34 9.1 ESE 19 28 10 15 1020.5 1017.4 0.0
14/08:30am 22.8 18.4 7.4 37 8.2 E 20 30 11 16 1020.6 - 0.0
14/08:00am 21.8 17.5 7.2 39 7.7 E 19 26 10 14 1020.5 - 0.0
14/07:30am 20.9 17.7 6.8 40 7.4 ESE 13 32 7 17 1020.2 - 0.0
14/07:00am 19.8 17.7 6.5 42 6.9 SE 7 13 4 7 1019.9 - 0.0
14/06:30am 18.9 16.0 6.4 44 6.4 ESE 11 20 6 11 1019.7 - 0.0
14/06:00am 19.1 16.1 6.2 43 6.6 ESE 11 17 6 9 1019.3 1016.3 0.0
14/05:30am 19.9 16.9 5.9 40 7.1 ESE 11 22 6 12 1019.2 - 0.0
14/05:00am 19.9 17.3 5.9 40 7.1 E 9 13 5 7 1018.9 - 0.0
14/04:30am 19.0 15.9 5.5 41 6.8 SE 11 17 6 9 1018.9 - 0.0
14/04:00am 18.7 15.4 4.5 39 7.0 SE 11 13 6 7 1018.9 - 0.0
14/03:30am 19.0 15.2 4.0 37 7.3 SSE 13 15 7 8 1018.9 - 0.0
14/03:00am 19.4 15.3 4.3 37 7.4 SSE 15 20 8 11 1019.0 1015.9 0.0
14/02:30am 18.3 15.2 3.4 37 7.2 S 9 11 5 6 1019.0 - 0.0
14/02:00am 18.3 15.0 2.6 35 7.4 S 9 11 5 6 1019.1 - 0.0
14/01:30am 18.3 14.9 1.8 33 7.7 S 9 11 5 6 1019.1 - 0.0
14/01:00am 18.8 15.3 1.3 31 8.1 S 9 11 5 6 1019.1 - 0.0
14/12:30am 19.7 16.2 1.2 29 8.6 SSE 9 11 5 6 1019.1 - 0.0
14/12:00am 20.0 16.9 1.4 29 8.7 SSE 7 9 4 5 1019.1 1016.1 0.0
 
Date/Time
WST
Temp
°C
App
Temp
°C
Dew
Point
Rel
Hum
%
Delta-T
°C
Wind Press
QNH
hPa
Press
MSL
hPa
Rain
since 9 am
mm
Dir
 
Spd
km/h
Gust
km/h
Spd
kts
Gust
kts
13/11:30pm 20.9 17.8 1.2 27 9.2 SE 7 9 4 5 1019.1 - 0.0
13/11:00pm 21.8 18.2 0.9 25 9.8 SE 9 13 5 7 1019.1 - 0.0
13/10:30pm 22.0 18.1 1.1 25 9.9 SE 11 15 6 8 1019.2 - 0.0
13/10:00pm 22.2 17.9 0.7 24 10.1 SSE 13 17 7 9 1019.3 - 0.0

Other Formats:

Comma delimited format used in spreadsheet applications
http://www.bom.gov.au/fwo/IDW60801/IDW60801.94317.axf

JavaScript Object Notation format (JSON) in row-major order
http://www.bom.gov.au/fwo/IDW60801/IDW60801.94317.json